sensor_id;sensor_type;location;lat;lon;timestamp;pressure;altitude;pressure_sealevel;temperature;humidity
36972;BME280;40554;52.122;20.678;2022-12-07T00:01:22;99758.41;;;1.22;100.00
36972;BME280;40554;52.122;20.678;2022-12-07T00:03:43;99760.90;;;1.25;100.00
36972;BME280;40554;52.122;20.678;2022-12-07T00:06:01;99753.86;;;1.27;100.00
36972;BME280;40554;52.122;20.678;2022-12-07T00:08:18;99758.95;;;1.30;100.00
36972;BME280;40554;52.122;20.678;2022-12-07T00:10:34;99747.11;;;1.33;100.00
36972;BME280;40554;52.122;20.678;2022-12-07T00:12:51;99747.41;;;1.36;100.00
36972;BME280;40554;52.122;20.678;2022-12-07T00:15:08;99752.53;;;1.39;100.00
36972;BME280;40554;52.122;20.678;2022-12-07T00:17:24;99748.95;;;1.41;100.00
36972;BME280;40554;52.122;20.678;2022-12-07T00:19:41;99750.13;;;1.44;100.00
36972;BME280;40554;52.122;20.678;2022-12-07T00:21:57;99745.62;;;1.48;100.00
36972;BME280;40554;52.122;20.678;2022-12-07T00:24:13;99748.18;;;1.49;100.00
36972;BME280;40554;52.122;20.678;2022-12-07T00:26:32;99745.44;;;1.52;100.00
36972;BME280;40554;52.122;20.678;2022-12-07T00:28:52;99740.54;;;1.55;100.00
36972;BME280;40554;52.122;20.678;2022-12-07T00:31:12;99743.07;;;1.57;100.00
36972;BME280;40554;52.122;20.678;2022-12-07T00:33:29;99745.97;;;1.61;100.00
36972;BME280;40554;52.122;20.678;2022-12-07T00:35:45;99748.03;;;1.63;100.00
36972;BME280;40554;52.122;20.678;2022-12-07T00:38:02;99744.02;;;1.66;100.00
36972;BME280;40554;52.122;20.678;2022-12-07T00:40:18;99741.78;;;1.67;100.00
36972;BME280;40554;52.122;20.678;2022-12-07T00:42:34;99745.19;;;1.69;100.00
36972;BME280;40554;52.122;20.678;2022-12-07T00:44:50;99743.34;;;1.71;100.00
36972;BME280;40554;52.122;20.678;2022-12-07T00:47:06;99746.75;;;1.73;100.00
36972;BME280;40554;52.122;20.678;2022-12-07T00:49:23;99747.53;;;1.75;100.00
36972;BME280;40554;52.122;20.678;2022-12-07T00:51:39;99749.22;;;1.76;100.00
36972;BME280;40554;52.122;20.678;2022-12-07T00:53:55;99745.63;;;1.78;100.00
36972;BME280;40554;52.122;20.678;2022-12-07T00:56:14;99746.48;;;1.79;100.00
36972;BME280;40554;52.122;20.678;2022-12-07T00:58:31;99748.58;;;1.81;100.00
36972;BME280;40554;52.122;20.678;2022-12-07T01:00:48;99743.77;;;1.82;100.00
36972;BME280;40554;52.122;20.678;2022-12-07T01:03:06;99743.77;;;1.82;100.00
36972;BME280;40554;52.122;20.678;2022-12-07T01:05:23;99738.53;;;1.82;100.00
36972;BME280;40554;52.122;20.678;2022-12-07T01:07:39;99735.97;;;1.81;100.00
36972;BME280;40554;52.122;20.678;2022-12-07T01:09:55;99738.12;;;1.81;100.00
36972;BME280;40554;52.122;20.678;2022-12-07T01:12:11;99737.66;;;1.82;100.00
36972;BME280;40554;52.122;20.678;2022-12-07T01:14:28;99735.05;;;1.82;100.00
36972;BME280;40554;52.122;20.678;2022-12-07T01:16:44;99728.45;;;1.83;100.00
36972;BME280;40554;52.122;20.678;2022-12-07T01:19:01;99720.98;;;1.84;100.00
36972;BME280;40554;52.122;20.678;2022-12-07T01:21:23;99723.61;;;1.84;100.00
36972;BME280;40554;52.122;20.678;2022-12-07T01:23:41;99727.98;;;1.84;100.00
36972;BME280;40554;52.122;20.678;2022-12-07T01:25:59;99724.48;;;1.85;100.00
36972;BME280;40554;52.122;20.678;2022-12-07T01:28:17;99717.07;;;1.84;100.00
36972;BME280;40554;52.122;20.678;2022-12-07T01:30:33;99718.84;;;1.84;100.00
36972;BME280;40554;52.122;20.678;2022-12-07T01:32:50;99723.17;;;1.85;100.00
36972;BME280;40554;52.122;20.678;2022-12-07T01:35:07;99724.02;;;1.85;100.00
36972;BME280;40554;52.122;20.678;2022-12-07T01:37:23;99721.87;;;1.85;100.00
36972;BME280;40554;52.122;20.678;2022-12-07T01:39:40;99722.70;;;1.85;100.00
36972;BME280;40554;52.122;20.678;2022-12-07T01:41:57;99716.55;;;1.86;100.00
36972;BME280;40554;52.122;20.678;2022-12-07T01:46:42;99715.25;;;1.86;100.00
36972;BME280;40554;52.122;20.678;2022-12-07T01:49:01;99717.86;;;1.86;100.00
36972;BME280;40554;52.122;20.678;2022-12-07T01:51:19;99717.86;;;1.86;100.00
36972;BME280;40554;52.122;20.678;2022-12-07T01:53:38;99722.57;;;1.88;100.00
36972;BME280;40554;52.122;20.678;2022-12-07T01:55:58;99722.11;;;1.89;100.00
36972;BME280;40554;52.122;20.678;2022-12-07T01:58:16;99721.64;;;1.89;100.00
36972;BME280;40554;52.122;20.678;2022-12-07T02:00:33;99721.27;;;1.88;100.00
36972;BME280;40554;52.122;20.678;2022-12-07T02:03:00;99719.11;;;1.88;100.00
36972;BME280;40554;52.122;20.678;2022-12-07T02:05:20;99719.16;;;1.86;100.00
36972;BME280;40554;52.122;20.678;2022-12-07T02:07:39;99714.86;;;1.85;100.00
36972;BME280;40554;52.122;20.678;2022-12-07T02:09:56;99715.38;;;1.83;100.00
36972;BME280;40554;52.122;20.678;2022-12-07T02:12:12;99716.69;;;1.83;100.00
36972;BME280;40554;52.122;20.678;2022-12-07T02:14:28;99720.98;;;1.84;100.00
36972;BME280;40554;52.122;20.678;2022-12-07T02:19:35;99712.30;;;1.84;100.00
36972;BME280;40554;52.122;20.678;2022-12-07T02:24:47;99703.67;;;1.82;100.00
36972;BME280;40554;52.122;20.678;2022-12-07T02:29:51;99707.27;;;1.79;100.00
36972;BME280;40554;52.122;20.678;2022-12-07T02:32:39;99710.42;;;1.77;100.00
36972;BME280;40554;52.122;20.678;2022-12-07T02:35:04;99703.94;;;1.75;100.00
36972;BME280;40554;52.122;20.678;2022-12-07T02:39:58;99705.38;;;1.72;100.00
36972;BME280;40554;52.122;20.678;2022-12-07T02:42:18;99700.75;;;1.69;100.00
36972;BME280;40554;52.122;20.678;2022-12-07T02:44:37;99700.75;;;1.69;100.00
36972;BME280;40554;52.122;20.678;2022-12-07T02:47:01;99706.83;;;1.69;100.00
36972;BME280;40554;52.122;20.678;2022-12-07T02:49:18;99699.03;;;1.68;100.00
36972;BME280;40554;52.122;20.678;2022-12-07T02:51:40;99699.96;;;1.67;100.00
36972;BME280;40554;52.122;20.678;2022-12-07T02:53:59;99701.73;;;1.66;100.00
36972;BME280;40554;52.122;20.678;2022-12-07T03:08:12;99698.98;;;1.59;100.00
36972;BME280;40554;52.122;20.678;2022-12-07T03:10:33;99694.34;;;1.55;100.00
36972;BME280;40554;52.122;20.678;2022-12-07T03:13:22;99698.31;;;1.54;100.00
36972;BME280;40554;52.122;20.678;2022-12-07T03:16:05;99709.28;;;1.52;100.00
36972;BME280;40554;52.122;20.678;2022-12-07T03:18:24;99696.81;;;1.48;100.00
36972;BME280;40554;52.122;20.678;2022-12-07T03:20:44;99696.43;;;1.47;100.00
36972;BME280;40554;52.122;20.678;2022-12-07T03:23:04;99696.56;;;1.44;100.00
36972;BME280;40554;52.122;20.678;2022-12-07T03:25:22;99692.31;;;1.42;100.00
36972;BME280;40554;52.122;20.678;2022-12-07T03:28:00;99687.98;;;1.41;100.00
36972;BME280;40554;52.122;20.678;2022-12-07T03:30:20;99680.61;;;1.40;100.00
36972;BME280;40554;52.122;20.678;2022-12-07T03:35:23;99680.23;;;1.39;100.00
36972;BME280;40554;52.122;20.678;2022-12-07T03:37:51;99678.97;;;1.38;100.00
36972;BME280;40554;52.122;20.678;2022-12-07T03:41:18;99676.82;;;1.37;100.00
36972;BME280;40554;52.122;20.678;2022-12-07T03:42:50;99680.73;;;1.37;100.00
36972;BME280;40554;52.122;20.678;2022-12-07T03:45:08;99675.05;;;1.38;100.00
36972;BME280;40554;52.122;20.678;2022-12-07T03:47:38;99672.52;;;1.36;100.00
36972;BME280;40554;52.122;20.678;2022-12-07T03:50:25;99671.22;;;1.36;100.00
36972;BME280;40554;52.122;20.678;2022-12-07T03:52:46;99669.96;;;1.35;100.00
36972;BME280;40554;52.122;20.678;2022-12-07T03:55:09;99668.66;;;1.35;100.00
36972;BME280;40554;52.122;20.678;2022-12-07T03:57:35;99664.81;;;1.33;100.00
36972;BME280;40554;52.122;20.678;2022-12-07T03:59:54;99668.33;;;1.32;100.00
36972;BME280;40554;52.122;20.678;2022-12-07T04:02:13;99662.72;;;1.31;100.00
36972;BME280;40554;52.122;20.678;2022-12-07T04:04:30;99659.18;;;1.32;100.00
36972;BME280;40554;52.122;20.678;2022-12-07T04:06:47;99664.41;;;1.32;100.00
36972;BME280;40554;52.122;20.678;2022-12-07T04:09:03;99661.88;;;1.30;100.00
36972;BME280;40554;52.122;20.678;2022-12-07T04:11:20;99659.69;;;1.30;100.00
36972;BME280;40554;52.122;20.678;2022-12-07T04:13:36;99660.62;;;1.29;100.00
36972;BME280;40554;52.122;20.678;2022-12-07T04:15:54;99660.67;;;1.27;100.00
36972;BME280;40554;52.122;20.678;2022-12-07T04:18:10;99658.05;;;1.27;100.00
36972;BME280;40554;52.122;20.678;2022-12-07T04:20:26;99661.12;;;1.27;100.00
36972;BME280;40554;52.122;20.678;2022-12-07T04:22:43;99660.23;;;1.28;100.00
36972;BME280;40554;52.122;20.678;2022-12-07T04:24:59;99655.02;;;1.28;100.00
36972;BME280;40554;52.122;20.678;2022-12-07T04:27:15;99660.23;;;1.28;100.00
36972;BME280;40554;52.122;20.678;2022-12-07T04:29:32;99658.05;;;1.27;100.00
36972;BME280;40554;52.122;20.678;2022-12-07T04:31:48;99654.59;;;1.27;100.00
36972;BME280;40554;52.122;20.678;2022-12-07T04:34:06;99648.53;;;1.26;100.00
36972;BME280;40554;52.122;20.678;2022-12-07T04:36:22;99650.30;;;1.26;100.00
36972;BME280;40554;52.122;20.678;2022-12-07T04:38:39;99650.69;;;1.27;100.00
36972;BME280;40554;52.122;20.678;2022-12-07T04:40:55;99649.84;;;1.26;100.00
36972;BME280;40554;52.122;20.678;2022-12-07T04:43:12;99645.92;;;1.26;100.00
36972;BME280;40554;52.122;20.678;2022-12-07T04:45:28;99645.97;;;1.25;100.00
36972;BME280;40554;52.122;20.678;2022-12-07T04:47:44;99645.97;;;1.25;100.00
36972;BME280;40554;52.122;20.678;2022-12-07T04:50:01;99646.90;;;1.24;100.00
36972;BME280;40554;52.122;20.678;2022-12-07T04:52:17;99643.06;;;1.22;100.00
36972;BME280;40554;52.122;20.678;2022-12-07T04:54:34;99639.98;;;1.23;100.00
36972;BME280;40554;52.122;20.678;2022-12-07T04:56:50;99644.80;;;1.22;100.00
36972;BME280;40554;52.122;20.678;2022-12-07T04:59:06;99644.93;;;1.19;100.00
36972;BME280;40554;52.122;20.678;2022-12-07T05:01:24;99640.22;;;1.17;100.00
36972;BME280;40554;52.122;20.678;2022-12-07T05:03:40;99636.25;;;1.18;100.00
36972;BME280;40554;52.122;20.678;2022-12-07T05:05:56;99632.39;;;1.17;100.00
36972;BME280;40554;52.122;20.678;2022-12-07T05:08:13;99632.84;;;1.16;100.00
36972;BME280;40554;52.122;20.678;2022-12-07T05:10:29;99633.82;;;1.14;100.00
36972;BME280;40554;52.122;20.678;2022-12-07T05:12:45;99636.05;;;1.13;100.00
36972;BME280;40554;52.122;20.678;2022-12-07T05:15:02;99631.75;;;1.12;100.00
36972;BME280;40554;52.122;20.678;2022-12-07T05:17:18;99634.36;;;1.12;100.00
36972;BME280;40554;52.122;20.678;2022-12-07T05:19:34;99630.96;;;1.09;100.00
36972;BME280;40554;52.122;20.678;2022-12-07T05:21:51;99621.88;;;1.08;100.00
36972;BME280;40554;52.122;20.678;2022-12-07T05:24:09;99627.17;;;1.06;100.00
36972;BME280;40554;52.122;20.678;2022-12-07T05:26:26;99624.15;;;1.05;100.00
36972;BME280;40554;52.122;20.678;2022-12-07T05:28:43;99623.82;;;1.03;100.00
36972;BME280;40554;52.122;20.678;2022-12-07T05:30:59;99619.14;;;1.01;100.00
36972;BME280;40554;52.122;20.678;2022-12-07T05:33:16;99619.19;;;0.99;100.00
36972;BME280;40554;52.122;20.678;2022-12-07T05:35:32;99622.73;;;0.98;100.00
36972;BME280;40554;52.122;20.678;2022-12-07T05:37:48;99622.73;;;0.98;100.00
36972;BME280;40554;52.122;20.678;2022-12-07T05:40:06;99622.31;;;0.97;100.00
36972;BME280;40554;52.122;20.678;2022-12-07T05:42:24;99621.01;;;0.97;100.00
36972;BME280;40554;52.122;20.678;2022-12-07T05:44:47;99625.47;;;0.95;100.00
36972;BME280;40554;52.122;20.678;2022-12-07T05:47:01;99626.36;;;0.94;100.00
36972;BME280;40554;52.122;20.678;2022-12-07T05:49:17;99628.17;;;0.92;100.00
36972;BME280;40554;52.122;20.678;2022-12-07T05:51:34;99630.78;;;0.92;100.00
36972;BME280;40554;52.122;20.678;2022-12-07T05:53:50;99633.94;;;0.90;100.00
36972;BME280;40554;52.122;20.678;2022-12-07T05:56:06;99636.14;;;0.89;100.00
36972;BME280;40554;52.122;20.678;2022-12-07T05:58:23;99634.06;;;0.87;100.00
36972;BME280;40554;52.122;20.678;2022-12-07T06:00:57;99632.81;;;0.85;100.00
36972;BME280;40554;52.122;20.678;2022-12-07T06:03:14;99633.66;;;0.86;100.00
36972;BME280;40554;52.122;20.678;2022-12-07T06:05:30;99631.97;;;0.85;100.00
36972;BME280;40554;52.122;20.678;2022-12-07T06:07:46;99633.78;;;0.83;100.00
36972;BME280;40554;52.122;20.678;2022-12-07T06:10:03;99633.78;;;0.83;100.00
36972;BME280;40554;52.122;20.678;2022-12-07T06:12:20;99626.87;;;0.82;100.00
36972;BME280;40554;52.122;20.678;2022-12-07T06:14:53;99626.08;;;0.80;100.00
36972;BME280;40554;52.122;20.678;2022-12-07T06:17:10;99625.16;;;0.81;100.00
36972;BME280;40554;52.122;20.678;2022-12-07T06:19:27;99618.38;;;0.77;100.00
36972;BME280;40554;52.122;20.678;2022-12-07T06:21:44;99628.73;;;0.78;100.00
36972;BME280;40554;52.122;20.678;2022-12-07T06:24:00;99629.70;;;0.76;100.00
36972;BME280;40554;52.122;20.678;2022-12-07T06:26:17;99624.95;;;0.75;100.00
36972;BME280;40554;52.122;20.678;2022-12-07T06:28:33;99623.72;;;0.74;100.00
36972;BME280;40554;52.122;20.678;2022-12-07T06:31:01;99624.16;;;0.73;100.00
36972;BME280;40554;52.122;20.678;2022-12-07T06:33:13;99622.47;;;0.72;100.00
36972;BME280;40554;52.122;20.678;2022-12-07T06:35:29;99619.94;;;0.71;100.00
36972;BME280;40554;52.122;20.678;2022-12-07T06:37:48;99621.23;;;0.71;100.00
36972;BME280;40554;52.122;20.678;2022-12-07T06:40:06;99626.46;;;0.71;100.00
36972;BME280;40554;52.122;20.678;2022-12-07T06:42:22;99622.13;;;0.70;100.00
36972;BME280;40554;52.122;20.678;2022-12-07T06:44:39;99625.66;;;0.69;100.00
36972;BME280;40554;52.122;20.678;2022-12-07T06:46:55;99633.03;;;0.69;100.00
36972;BME280;40554;52.122;20.678;2022-12-07T06:49:11;99631.77;;;0.68;100.00
36972;BME280;40554;52.122;20.678;2022-12-07T06:51:28;99631.77;;;0.68;100.00
36972;BME280;40554;52.122;20.678;2022-12-07T06:53:44;99629.16;;;0.68;100.00
36972;BME280;40554;52.122;20.678;2022-12-07T06:56:00;99623.10;;;0.67;100.00
36972;BME280;40554;52.122;20.678;2022-12-07T06:58:17;99627.09;;;0.65;100.00
36972;BME280;40554;52.122;20.678;2022-12-07T07:00:34;99627.98;;;0.64;100.00
36972;BME280;40554;52.122;20.678;2022-12-07T07:02:50;99624.53;;;0.64;100.00
36972;BME280;40554;52.122;20.678;2022-12-07T07:05:07;99630.13;;;0.65;100.00
36972;BME280;40554;52.122;20.678;2022-12-07T07:07:23;99634.51;;;0.64;100.00
36972;BME280;40554;52.122;20.678;2022-12-07T07:09:40;99630.59;;;0.64;100.00
36972;BME280;40554;52.122;20.678;2022-12-07T07:11:56;99624.99;;;0.63;100.00
36972;BME280;40554;52.122;20.678;2022-12-07T07:14:13;99627.09;;;0.65;100.00
36972;BME280;40554;52.122;20.678;2022-12-07T07:16:31;99631.52;;;0.63;100.00
36972;BME280;40554;52.122;20.678;2022-12-07T07:18:47;99629.29;;;0.64;100.00
36972;BME280;40554;52.122;20.678;2022-12-07T07:21:04;99631.05;;;0.64;100.00
36972;BME280;40554;52.122;20.678;2022-12-07T07:23:21;99624.58;;;0.62;100.00
36972;BME280;40554;52.122;20.678;2022-12-07T07:25:37;99627.19;;;0.62;100.00
36972;BME280;40554;52.122;20.678;2022-12-07T07:27:53;99628.49;;;0.62;100.00
36972;BME280;40554;52.122;20.678;2022-12-07T07:30:10;99631.52;;;0.63;100.00
36972;BME280;40554;52.122;20.678;2022-12-07T07:32:27;99630.67;;;0.63;100.00
36972;BME280;40554;52.122;20.678;2022-12-07T07:34:43;99637.20;;;0.63;100.00
36972;BME280;40554;52.122;20.678;2022-12-07T07:36:59;99639.80;;;0.63;100.00
36972;BME280;40554;52.122;20.678;2022-12-07T07:39:16;99639.85;;;0.61;100.00
36972;BME280;40554;52.122;20.678;2022-12-07T07:41:32;99639.39;;;0.62;100.00
36972;BME280;40554;52.122;20.678;2022-12-07T07:43:49;99635.48;;;0.62;100.00
36972;BME280;40554;52.122;20.678;2022-12-07T07:46:05;99631.52;;;0.63;100.00
36972;BME280;40554;52.122;20.678;2022-12-07T07:48:21;99636.73;;;0.63;100.00
36972;BME280;40554;52.122;20.678;2022-12-07T07:50:39;99633.62;;;0.65;100.00
36972;BME280;40554;52.122;20.678;2022-12-07T07:52:57;99636.61;;;0.66;100.00
36972;BME280;40554;52.122;20.678;2022-12-07T07:55:13;99633.95;;;0.68;100.00
36972;BME280;40554;52.122;20.678;2022-12-07T07:57:30;99634.29;;;0.71;100.00
36972;BME280;40554;52.122;20.678;2022-12-07T07:59:46;99635.52;;;0.72;100.00
36972;BME280;40554;52.122;20.678;2022-12-07T08:02:02;99638.08;;;0.74;100.00
36972;BME280;40554;52.122;20.678;2022-12-07T08:04:19;99633.63;;;0.76;100.00
36972;BME280;40554;52.122;20.678;2022-12-07T08:06:35;99639.64;;;0.78;100.00
36972;BME280;40554;52.122;20.678;2022-12-07T08:08:52;99636.98;;;0.79;100.00
36972;BME280;40554;52.122;20.678;2022-12-07T08:11:09;99645.58;;;0.81;100.00
36972;BME280;40554;52.122;20.678;2022-12-07T08:13:26;99641.61;;;0.83;100.00
36972;BME280;40554;52.122;20.678;2022-12-07T08:15:44;99646.33;;;0.85;100.00
36972;BME280;40554;52.122;20.678;2022-12-07T08:18:03;99644.89;;;0.88;100.00
36972;BME280;40554;52.122;20.678;2022-12-07T08:20:20;99634.16;;;0.84;100.00
36972;BME280;40554;52.122;20.678;2022-12-07T08:22:37;99643.33;;;0.94;100.00
36972;BME280;40554;52.122;20.678;2022-12-07T08:24:53;99646.66;;;0.98;100.00
36972;BME280;40554;52.122;20.678;2022-12-07T08:27:10;99646.94;;;1.02;100.00
36972;BME280;40554;52.122;20.678;2022-12-07T08:29:26;99650.22;;;1.07;100.00
36972;BME280;40554;52.122;20.678;2022-12-07T08:31:43;99643.94;;;1.11;100.00
36972;BME280;40554;52.122;20.678;2022-12-07T08:34:00;99646.37;;;1.16;100.00
36972;BME280;40554;52.122;20.678;2022-12-07T08:36:17;99649.27;;;1.20;100.00
36972;BME280;40554;52.122;20.678;2022-12-07T08:38:35;99653.89;;;1.23;100.00
36972;BME280;40554;52.122;20.678;2022-12-07T08:47:25;99655.55;;;1.36;100.00
36972;BME280;40554;52.122;20.678;2022-12-07T08:52:35;99653.89;;;1.44;100.00
36972;BME280;40554;52.122;20.678;2022-12-07T08:54:54;99658.59;;;1.46;100.00
36972;BME280;40554;52.122;20.678;2022-12-07T08:57:25;99655.47;;;1.48;100.00
36972;BME280;40554;52.122;20.678;2022-12-07T08:59:42;99658.41;;;1.50;100.00
36972;BME280;40554;52.122;20.678;2022-12-07T09:02:23;99655.28;;;1.52;100.00
36972;BME280;40554;52.122;20.678;2022-12-07T09:04:51;99651.74;;;1.53;100.00
36972;BME280;40554;52.122;20.678;2022-12-07T09:07:23;99655.53;;;1.57;100.00
36972;BME280;40554;52.122;20.678;2022-12-07T09:09:43;99654.63;;;1.58;100.00
36972;BME280;40554;52.122;20.678;2022-12-07T09:11:59;99647.09;;;1.60;100.00
36972;BME280;40554;52.122;20.678;2022-12-07T09:14:19;99643.49;;;1.63;100.00
36972;BME280;40554;52.122;20.678;2022-12-07T09:16:36;99640.77;;;1.66;100.00
36972;BME280;40554;52.122;20.678;2022-12-07T09:18:52;99639.84;;;1.67;100.00
36972;BME280;40554;52.122;20.678;2022-12-07T09:21:09;99630.56;;;1.70;100.00
36972;BME280;40554;52.122;20.678;2022-12-07T09:23:25;99633.96;;;1.72;100.00
36972;BME280;40554;52.122;20.678;2022-12-07T09:25:42;99630.83;;;1.74;100.00
36972;BME280;40554;52.122;20.678;2022-12-07T09:28:03;99624.67;;;1.75;100.00
36972;BME280;40554;52.122;20.678;2022-12-07T09:30:22;99632.38;;;1.78;100.00
36972;BME280;40554;52.122;20.678;2022-12-07T09:32:39;99634.06;;;1.79;100.00
36972;BME280;40554;52.122;20.678;2022-12-07T09:35:34;99631.39;;;1.81;100.00
36972;BME280;40554;52.122;20.678;2022-12-07T09:38:29;99635.27;;;1.82;100.00
36972;BME280;40554;52.122;20.678;2022-12-07T09:40:54;99632.09;;;1.84;100.00
36972;BME280;40554;52.122;20.678;2022-12-07T09:43:16;99630.22;;;1.88;100.00
36972;BME280;40554;52.122;20.678;2022-12-07T09:46:03;99634.46;;;1.90;100.00
36972;BME280;40554;52.122;20.678;2022-12-07T09:48:23;99626.06;;;1.92;100.00
36972;BME280;40554;52.122;20.678;2022-12-07T09:50:41;99626.39;;;1.95;100.00
36972;BME280;40554;52.122;20.678;2022-12-07T09:53:08;99614.16;;;1.95;100.00
36972;BME280;40554;52.122;20.678;2022-12-07T09:55:31;99618.87;;;1.97;100.00
36972;BME280;40554;52.122;20.678;2022-12-07T09:57:49;99618.30;;;2.01;100.00
36972;BME280;40554;52.122;20.678;2022-12-07T10:00:17;99619.92;;;2.04;100.00
36972;BME280;40554;52.122;20.678;2022-12-07T10:02:37;99616.75;;;2.06;100.00
36972;BME280;40554;52.122;20.678;2022-12-07T10:04:58;99625.39;;;2.08;100.00
36972;BME280;40554;52.122;20.678;2022-12-07T10:07:15;99625.77;;;2.09;100.00
36972;BME280;40554;52.122;20.678;2022-12-07T10:09:31;99621.00;;;2.08;100.00
36972;BME280;40554;52.122;20.678;2022-12-07T10:12:10;99625.71;;;2.10;100.00
36972;BME280;40554;52.122;20.678;2022-12-07T10:14:31;99627.80;;;2.12;100.00
36972;BME280;40554;52.122;20.678;2022-12-07T10:16:49;99622.95;;;2.13;100.00
36972;BME280;40554;52.122;20.678;2022-12-07T10:19:17;99621.12;;;2.15;100.00
36972;BME280;40554;52.122;20.678;2022-12-07T10:21:36;99618.97;;;2.15;100.00
36972;BME280;40554;52.122;20.678;2022-12-07T10:26:39;99616.67;;;2.17;100.00
36972;BME280;40554;52.122;20.678;2022-12-07T10:28:58;99613.07;;;2.20;100.00
36972;BME280;40554;52.122;20.678;2022-12-07T10:31:23;99613.83;;;2.22;100.00
36972;BME280;40554;52.122;20.678;2022-12-07T10:33:56;99608.45;;;2.25;100.00
36972;BME280;40554;52.122;20.678;2022-12-07T10:41:17;99602.16;;;2.29;100.00
36972;BME280;40554;52.122;20.678;2022-12-07T10:43:34;99601.70;;;2.30;100.00
36972;BME280;40554;52.122;20.678;2022-12-07T10:51:33;99601.23;;;2.30;100.00
36972;BME280;40554;52.122;20.678;2022-12-07T10:54:22;99603.94;;;2.29;100.00
36972;BME280;40554;52.122;20.678;2022-12-07T11:00:04;99602.38;;;2.25;100.00
36972;BME280;40554;52.122;20.678;2022-12-07T11:02:32;99602.46;;;2.23;100.00
36972;BME280;40554;52.122;20.678;2022-12-07T11:05:16;99601.67;;;2.21;100.00
36972;BME280;40554;52.122;20.678;2022-12-07T11:10:44;99606.64;;;2.17;100.00
36972;BME280;40554;52.122;20.678;2022-12-07T11:15:54;99605.80;;;2.16;100.00
36972;BME280;40554;52.122;20.678;2022-12-07T11:18:24;99597.95;;;2.16;100.00
36972;BME280;40554;52.122;20.678;2022-12-07T11:23:50;99597.11;;;2.16;100.00
36972;BME280;40554;52.122;20.678;2022-12-07T11:26:48;99588.89;;;2.15;100.00
36972;BME280;40554;52.122;20.678;2022-12-07T11:29:24;99591.50;;;2.15;100.00
36972;BME280;40554;52.122;20.678;2022-12-07T11:35:05;99579.73;;;2.15;100.00
36972;BME280;40554;52.122;20.678;2022-12-07T11:37:37;99583.80;;;2.12;100.00
36972;BME280;40554;52.122;20.678;2022-12-07T11:40:02;99582.41;;;2.13;100.00
36972;BME280;40554;52.122;20.678;2022-12-07T11:42:26;99581.56;;;2.13;100.00
36972;BME280;40554;52.122;20.678;2022-12-07T11:47:38;99574.94;;;2.14;100.00
36972;BME280;40554;52.122;20.678;2022-12-07T11:53:03;99582.73;;;2.16;100.00
36972;BME280;40554;52.122;20.678;2022-12-07T11:55:32;99577.88;;;2.17;100.00
36972;BME280;40554;52.122;20.678;2022-12-07T11:58:04;99572.73;;;2.15;100.00
36972;BME280;40554;52.122;20.678;2022-12-07T12:00:22;99573.25;;;2.13;100.00
36972;BME280;40554;52.122;20.678;2022-12-07T12:02:46;99571.63;;;2.11;100.00
36972;BME280;40554;52.122;20.678;2022-12-07T12:05:24;99573.40;;;2.10;100.00
36972;BME280;40554;52.122;20.678;2022-12-07T12:07:42;99571.63;;;2.11;100.00
36972;BME280;40554;52.122;20.678;2022-12-07T12:10:21;99571.25;;;2.10;100.00
36972;BME280;40554;52.122;20.678;2022-12-07T12:13:02;99565.61;;;2.09;100.00
36972;BME280;40554;52.122;20.678;2022-12-07T12:18:38;99559.48;;;2.10;100.00
36972;BME280;40554;52.122;20.678;2022-12-07T12:21:10;99558.02;;;2.13;100.00
36972;BME280;40554;52.122;20.678;2022-12-07T12:23:46;99555.31;;;2.14;100.00
36972;BME280;40554;52.122;20.678;2022-12-07T12:26:21;99553.17;;;2.14;100.00
36972;BME280;40554;52.122;20.678;2022-12-07T12:33:50;99545.23;;;2.07;100.00
36972;BME280;40554;52.122;20.678;2022-12-07T12:37:00;99545.77;;;2.05;100.00
36972;BME280;40554;52.122;20.678;2022-12-07T12:51:44;99528.50;;;2.00;100.00
36972;BME280;40554;52.122;20.678;2022-12-07T12:56:37;99526.83;;;1.99;100.00
36972;BME280;40554;52.122;20.678;2022-12-07T12:59:23;99532.42;;;2.00;100.00
36972;BME280;40554;52.122;20.678;2022-12-07T13:01:45;99531.13;;;2.00;100.00
36972;BME280;40554;52.122;20.678;2022-12-07T13:04:12;99531.13;;;2.00;100.00
36972;BME280;40554;52.122;20.678;2022-12-07T13:06:37;99533.83;;;1.99;100.00
36972;BME280;40554;52.122;20.678;2022-12-07T13:08:58;99533.97;;;1.96;100.00
36972;BME280;40554;52.122;20.678;2022-12-07T13:11:24;99530.48;;;1.95;100.00
36972;BME280;40554;52.122;20.678;2022-12-07T13:13:45;99520.48;;;1.95;100.00
36972;BME280;40554;52.122;20.678;2022-12-07T13:20:58;99523.20;;;1.93;100.00
36972;BME280;40554;52.122;20.678;2022-12-07T13:23:21;99527.78;;;1.88;100.00
36972;BME280;40554;52.122;20.678;2022-12-07T13:28:36;99521.56;;;1.91;100.00
36972;BME280;40554;52.122;20.678;2022-12-07T13:33:55;99525.17;;;1.88;100.00
36972;BME280;40554;52.122;20.678;2022-12-07T13:36:20;99523.02;;;1.88;100.00
36972;BME280;40554;52.122;20.678;2022-12-07T13:38:52;99532.23;;;1.86;100.00
36972;BME280;40554;52.122;20.678;2022-12-07T13:41:17;99531.91;;;1.84;100.00
36972;BME280;40554;52.122;20.678;2022-12-07T13:43:43;99539.95;;;1.79;100.00
36972;BME280;40554;52.122;20.678;2022-12-07T13:46:02;99536.58;;;1.77;100.00
36972;BME280;40554;52.122;20.678;2022-12-07T13:48:42;99543.64;;;1.75;100.00
36972;BME280;40554;52.122;20.678;2022-12-07T13:51:03;99542.39;;;1.73;100.00
36972;BME280;40554;52.122;20.678;2022-12-07T13:53:20;99539.02;;;1.71;100.00
36972;BME280;40554;52.122;20.678;2022-12-07T13:55:43;99538.70;;;1.69;100.00
36972;BME280;40554;52.122;20.678;2022-12-07T13:57:59;99540.67;;;1.64;100.00
36972;BME280;40554;52.122;20.678;2022-12-07T14:00:19;99540.72;;;1.62;100.00
36972;BME280;40554;52.122;20.678;2022-12-07T14:02:53;99542.64;;;1.59;100.00